Sweet Home, OR

4:17 PM PST on February 07, 2016 (GMT -0800)
Near Clarkmill and Hwy 20 | | Change Station
CLOSE
Current Station
Personal Weather Station
Location: Sweet Home, OR
Elevation: 610 ft
Nearby Weather Stations

Elev 610 ft 44.40 °N, 122.70 °W | Updated 2 minutes ago

Partly Cloudy
Partly Cloudy
57.0 °F
Feels Like 57.0 °F
N
4.0
Wind Variable Wind from SW
Gusts 7.0 mph

Today
High -- | Low -- °F
--% Chance of Precip.
Yesterday
High -- | Low -- °F
Precip. -- in
Pressure 30.46 in
Visibility 10.0 miles
Clouds Few 800 ft
Dew Point 48 °F
Humidity 73%
Rainfall 0.00 in
Snow Depth Not available.
7:22 AM 5:28 PM
Waning Crescent, 1% visible
METAR KCVO 080015Z 00000KT 10SM FEW008 11/08 A3046 RMK AO1
Pressure 30.46 in
Visibility 10.0 miles
Clouds Few 800 ft
Dew Point 48 °F
Humidity 73%
Rainfall 0.00 in
Snow Depth Not available.
7:22 AM 5:28 PM
Waning Crescent, 1% visible
METAR KCVO 080015Z 00000KT 10SM FEW008 11/08 A3046 RMK AO1

10-Day Weather Forecast

Almanac

Astronomy

Feb. 07, 2016 Rise Set
Actual Time
Civil Twilight
Nautical Twilight
Astronomical Twilight
Moon
Length of Visible Light
Length of Day
Tomorrow will be .
, % of the Moon is Illuminated

Today's Extremes

State Highs State Lows

Community

WunderPhotos

Upload Photos

1,891,334 photos uploaded!

WunderBlog® & News

Nearby

Air Quality

  Air Quality AQ Index Pollutant
Not available.

Snow Depth

Station Depth Elevation

Earthquake Activity

City Distance Mag. Time & Date
Minimum magnitude displayed is 2.5.

Coastal Water Temperatures

Place Temperature

Stations

Nearby Weather Stations

Station Location Temp. Windchill Dew Point Humidity Wind Precip. Elev Updated Type
                   

Watches & Warnings

There are currently no watches in effect.